Nancy Marian — WDJ3314 — position and weather

sailwx.info

Track history (hours):
 
Tides and Currents Weather Stations Pressure Air Temp Water Temp Dewpoint Dewpoint Depression Visibility Wind Speed Wind Dir Waves Ship Positions

Nancy Marian

Owner: Buffalo Marine Service, Inc., Houston, TX. More information available from US FCC via Universal Licensing System and Coast Guard Vessel Documentation Center.

Last reported at 2018-Jan-20 23:53 UTC. Time now 2018-Jan-24 01:46 UTC.
Position N 29°31' W 094°53'.

Length 21 m; draft 3 m.

Type: Tug. MMSI: 367766820.

Date/timePositionNaut miles runAvg speedWind from/ knotsBaromVisibWave heightAir tempDewpointWater temp
2018-Jan-20 23:53N 29°31' W 094°53'2 5.8
2018-Jan-20 23:29N 29°33' W 094°55'3 5.9
2018-Jan-20 23:00N 29°36' W 094°57'2 3.7
2018-Jan-20 22:24N 29°38' W 094°58'3 7.0
2018-Jan-20 22:00N 29°40' W 094°59'  
2018-Jan-11 16:44N 29°44' W 095°09'3 7.0
2018-Jan-11 16:14N 29°46' W 095°06'2 5.9
2018-Jan-11 15:58N 29°45' W 095°04'3 6.8
2018-Jan-11 15:30N 29°43' W 095°01'3 5.6
2018-Jan-11 15:00N 29°41' W 094°59'3 6.8
2018-Jan-11 14:30N 29°38' W 094°58'3 5.2
2018-Jan-11 14:00N 29°37' W 095°00'0 0.0
2018-Jan-11 13:30N 29°37' W 095°00'0 0.0
2018-Jan-11 13:00N 29°37' W 095°00'0 0.0
2018-Jan-11 12:30N 29°37' W 095°00'0 0.0
2018-Jan-11 12:00N 29°37' W 095°00'0 0.0
2018-Jan-11 11:30N 29°37' W 095°00'0 0.0
2018-Jan-11 11:00N 29°37' W 095°00'0 0.1
2018-Jan-11 10:15N 29°37' W 095°00'0 0.5
2018-Jan-11 10:00N 29°37' W 095°00'0 0.1
2018-Jan-11 09:30N 29°37' W 095°00'0 0.0
2018-Jan-11 09:00N 29°37' W 095°00'0 0.0
2018-Jan-11 08:30N 29°37' W 095°00'0 0.0
2018-Jan-11 08:00N 29°37' W 095°00'0 0.0
2018-Jan-11 07:30N 29°37' W 095°00'0 0.0
2018-Jan-11 07:00N 29°37' W 095°00'0 0.0
2018-Jan-11 06:30N 29°37' W 095°00'0 0.0
2018-Jan-11 06:00N 29°37' W 095°00'0 0.0
2018-Jan-11 05:30N 29°37' W 095°00'0 0.0
2018-Jan-11 05:00N 29°37' W 095°00'0 0.0
2018-Jan-11 04:30N 29°37' W 095°00'0 0.0
2018-Jan-11 04:00N 29°37' W 095°00'0 0.0
2018-Jan-11 03:30N 29°37' W 095°00'0 0.0
2018-Jan-11 03:00N 29°37' W 095°00'0 0.0
2018-Jan-11 02:30N 29°37' W 095°00'0 0.1
2018-Jan-11 02:00N 29°37' W 095°00'2 4.3
2018-Jan-11 01:30N 29°37' W 094°58'3 5.9
2018-Jan-11 01:00N 29°40' W 094°59'3 5.2
2018-Jan-11 00:29N 29°42' W 095°00'  
Track history (hours):
 
Tides and Currents Weather Stations Pressure Air Temp Water Temp Dewpoint Dewpoint Depression Visibility Wind Speed Wind Dir Waves Ship Positions

Nancy Marian

Owner: Buffalo Marine Service, Inc., Houston, TX. More information available from US FCC via Universal Licensing System and Coast Guard Vessel Documentation Center.

Last reported at 2018-Jan-20 23:53 UTC. Time now 2018-Jan-24 01:46 UTC.
Position N 29°31' W 094°53'.

Length 21 m; draft 3 m.

Type: Tug. MMSI: 367766820.

Date/timePositionNaut miles runAvg speedWind from/ knotsBaromVisibWave heightAir tempDewpointWater temp
2018-Jan-20 23:53N 29°31' W 094°53'2 5.8
2018-Jan-20 23:29N 29°33' W 094°55'3 5.9
2018-Jan-20 23:00N 29°36' W 094°57'2 3.7
2018-Jan-20 22:24N 29°38' W 094°58'3 7.0
2018-Jan-20 22:00N 29°40' W 094°59'  
2018-Jan-11 16:44N 29°44' W 095°09'3 7.0
2018-Jan-11 16:14N 29°46' W 095°06'2 5.9
2018-Jan-11 15:58N 29°45' W 095°04'3 6.8
2018-Jan-11 15:30N 29°43' W 095°01'3 5.6
2018-Jan-11 15:00N 29°41' W 094°59'3 6.8
2018-Jan-11 14:30N 29°38' W 094°58'3 5.2
2018-Jan-11 14:00N 29°37' W 095°00'0 0.0
2018-Jan-11 13:30N 29°37' W 095°00'0 0.0
2018-Jan-11 13:00N 29°37' W 095°00'0 0.0
2018-Jan-11 12:30N 29°37' W 095°00'0 0.0
2018-Jan-11 12:00N 29°37' W 095°00'0 0.0
2018-Jan-11 11:30N 29°37' W 095°00'0 0.0
2018-Jan-11 11:00N 29°37' W 095°00'0 0.1
2018-Jan-11 10:15N 29°37' W 095°00'0 0.5
2018-Jan-11 10:00N 29°37' W 095°00'0 0.1
2018-Jan-11 09:30N 29°37' W 095°00'0 0.0
2018-Jan-11 09:00N 29°37' W 095°00'0 0.0
2018-Jan-11 08:30N 29°37' W 095°00'0 0.0
2018-Jan-11 08:00N 29°37' W 095°00'0 0.0
2018-Jan-11 07:30N 29°37' W 095°00'0 0.0
2018-Jan-11 07:00N 29°37' W 095°00'0 0.0
2018-Jan-11 06:30N 29°37' W 095°00'0 0.0
2018-Jan-11 06:00N 29°37' W 095°00'0 0.0
2018-Jan-11 05:30N 29°37' W 095°00'0 0.0
2018-Jan-11 05:00N 29°37' W 095°00'0 0.0
2018-Jan-11 04:30N 29°37' W 095°00'0 0.0
2018-Jan-11 04:00N 29°37' W 095°00'0 0.0
2018-Jan-11 03:30N 29°37' W 095°00'0 0.0
2018-Jan-11 03:00N 29°37' W 095°00'0 0.0
2018-Jan-11 02:30N 29°37' W 095°00'0 0.1
2018-Jan-11 02:00N 29°37' W 095°00'2 4.3
2018-Jan-11 01:30N 29°37' W 094°58'3 5.9
2018-Jan-11 01:00N 29°40' W 094°59'3 5.2
2018-Jan-11 00:29N 29°42' W 095°00'  

Dump ship's entire track history